Date,TemperatureHighF,TemperatureAvgF,TemperatureLowF,DewpointHighF,DewpointAvgF,DewpointLowF,HumidityHigh,HumidityAvg,HumidityLow,PressureMaxIn,PressureMinIn,WindSpeedMaxMPH,WindSpeedAvgMPH,GustSpeedMaxMPH,PrecipitationSumIn
2013-4-1,81.4,71.0,62.6,71.0,66.5,61.0,97,86,64,30.05,29.97,14,2,16,0.00
2013-4-2,84.4,73.1,66.5,69.0,66.8,64.0,97,82,58,30.09,30.00,6,1,11,0.00
2013-4-3,86.4,74.9,66.1,71.0,67.4,64.0,93,79,52,30.06,29.94,11,2,17,0.00
2013-4-4,81.6,70.9,65.4,73.0,68.0,64.0,96,90,75,30.02,29.86,8,2,12,0.55
2013-4-5,74.6,68.9,63.2,68.0,63.8,58.0,97,84,68,30.02,29.81,12,2,23,0.63
2013-4-6,78.9,67.7,59.7,64.0,59.6,55.0,93,76,52,30.09,29.97,4,1,14,0.00
2013-4-7,86.4,72.6,60.5,65.0,62.2,58.0,95,73,38,30.12,30.02,6,1,10,0.00
2013-4-8,87.2,74.7,62.4,67.0,62.8,59.0,93,69,42,30.11,30.01,4,1,8,0.00
2013-4-9,86.8,73.8,62.9,69.0,64.4,61.0,94,74,46,30.12,30.04,7,1,11,0.00
2013-4-10,89.6,75.7,65.8,74.0,69.1,64.0,94,81,55,30.09,29.95,8,2,14,0.13
2013-4-11,89.0,78.1,71.1,76.0,72.1,70.0,95,83,60,29.99,29.84,9,2,13,0.01
2013-4-12,86.1,78.6,74.4,76.0,74.0,72.0,95,86,70,29.93,29.86,12,3,17,0.00
2013-4-13,90.0,79.8,72.3,74.0,71.2,68.0,94,76,56,29.96,29.84,8,1,15,0.00
2013-4-14,87.8,78.9,70.4,77.0,72.3,68.0,94,81,60,29.96,29.84,11,2,19,0.00
2013-4-15,90.5,78.7,65.7,76.0,70.2,63.0,94,76,56,30.06,29.92,10,1,10,0.03
2013-4-16,92.4,80.4,69.8,75.0,71.4,68.0,96,76,51,30.12,30.00,7,1,13,0.00
2013-4-17,88.8,78.5,69.2,72.0,68.7,66.0,94,73,50,30.11,29.98,4,1,9,0.00
2013-4-18,89.3,79.0,70.8,75.0,70.5,66.0,93,76,54,30.04,29.93,8,2,14,0.03
2013-4-19,87.6,78.7,70.7,76.0,72.8,69.0,95,83,62,30.01,29.93,11,2,16,0.01
2013-4-20,89.7,78.9,71.9,77.0,72.3,69.0,97,81,59,30.11,29.95,3,1,9,0.00
2013-4-21,89.2,74.1,64.3,73.0,68.7,63.0,96,84,55,30.11,29.98,5,1,12,0.47
2013-4-22,85.2,74.4,67.5,73.0,69.2,66.0,97,85,64,30.07,29.93,3,0,10,0.30
2013-4-23,87.5,75.2,66.0,70.0,66.3,63.0,95,76,49,30.08,29.97,6,1,10,0.00
2013-4-24,88.2,74.8,61.5,71.0,65.4,60.0,95,75,43,30.13,30.04,5,1,8,0.00
2013-4-25,87.8,76.6,65.3,70.0,66.0,62.0,95,72,42,30.20,30.07,4,1,7,0.00
2013-4-26,87.0,75.9,62.6,67.0,64.1,60.0,94,69,49,30.22,30.12,6,1,10,0.00
2013-4-27,87.5,76.6,66.6,67.0,64.7,61.0,93,69,48,30.20,30.05,9,2,15,0.00
2013-4-28,88.1,76.6,66.9,71.0,66.1,62.0,86,71,48,30.10,29.95,7,2,14,0.00
2013-4-29,88.0,75.9,66.4,74.0,67.0,62.0,88,75,54,30.01,29.91,8,2,14,0.00
2013-4-30,86.7,76.4,68.3,75.0,70.4,66.0,96,82,64,29.98,29.90,8,2,12,0.00